Chesterfield, New Jersey
Current Conditions -  °F | °C
As of 3:58 AM on Sunday 21 Dec 2014 (Local Time) from KWRI Reporting Station
Overcast Overcast  
Wind Chill: 30°   Ceiling: 3200
Heat Index: 30°   Visibility: 10mi
Dew Point: 23°   Wind: 3mph
Humidity: 75%   Direction: 270°W
Pressure: 30.27"   Gusts: NA
Location:  40.144°N, 74.6589°W
Report Text: KWRI 210858Z AUTO 27003KT 10SM OVC032 M01/M05 A3027 RMK AO2 SLP255 T10101050 53001 $
Loading
Personal Weather Stations






























Interactive Weather Map New forecast layout! Learn more

10-Day Weather Forecast

Advertisements
Track Severe Weather on mobile